Strona główna
METAR-TAF:

METAR-TAF

Lotnisko :

Jackson County Airport (Reynolds Field)

Jackson, Michigan, Stany Zjednoczone

Szerokość geograficzna: 42-15-35N, Długość geograficzna: 084-27-34W, wysokość: 305 m

Aktualna obserwacja pogody

Raport powstał 59 minut temu, godzina 06:56 UTC
Cisza
Temperatura -16°C
Wilgotność 84%
Ciśnienie 1029 hPa
Widzialność: 16.1 km
bezchmurnie

METAR: KJXN 200656Z AUTO 00000KT 10SM CLR M16/M18 A3039 RMK AO2 SLP314 T11611183

czas: 02:55 (07:55 UTC)

Prognoza

Raport powstał 2 godziny i 15 minut temu, godzina 05:40 UTC
Prognoza ważna od 20 godzina 06 UTC do 21 godzina 06 UTC
Wiatr 3 kt z kierunków zmiennych
Widzialność: 10 km
Przerywane chmury na wysokości 20000 ft
Od 20 godzina 2300 UTC
Wiatr 5 kt od północny zachód
Widzialność: 10 km
Przerywane chmury na wysokości 2500 ft
Od 21 godzina 0500 UTC
Wiatr 3 kt z kierunków zmiennych
Widzialność: 10 km
bezchmurnie

TAF: KJXN 200540Z 2006/2106 VRB03KT P6SM BKN200 FM202300 32005KT P6SM BKN025 FM210500 VRB03KT P6SM SKC

Obserwacja i prognoza pogody dla ponad 4000 lotnisk (raport METAR i TAF).

Dostępne stacje oznaczono żółtymi i czerwonymi punktami na mapie.

Najedź kursorem aby zobaczyć nazwę stacji.

Kliknij aby zobaczyć obserwacje i prognozy pogody.

Aby zmienić mapę: kliknij na zielony przycisk z czarnym krzyżykiem, aby powiększyć; na zielony przycisk z myślnikiem, aby pomniejszyć; na zielone strzałki, aby przejść do map sąsiednich.


METAR-TAF: